createdAt,value
2022-09-12T00:00:43.843Z,8.90
2022-09-12T00:03:10.345Z,6.55
2022-09-12T00:05:44.368Z,5.88
2022-09-12T00:08:11.608Z,6.77
2022-09-12T00:10:43.401Z,7.13
2022-09-12T00:13:11.369Z,5.13
2022-09-12T00:15:40.124Z,6.05
2022-09-12T00:18:08.199Z,4.80
2022-09-12T00:20:34.728Z,3.60
2022-09-12T00:23:01.781Z,4.90
2022-09-12T00:25:30.701Z,6.75
2022-09-12T00:27:57.425Z,4.60
2022-09-12T00:30:23.947Z,5.55
2022-09-12T00:32:51.519Z,8.47
2022-09-12T00:35:18.178Z,6.53
2022-09-12T00:37:47.892Z,5.97
2022-09-12T00:40:15.651Z,8.23
2022-09-12T00:42:42.377Z,7.22
2022-09-12T00:45:24.852Z,8.00
2022-09-12T00:47:51.359Z,5.82
2022-09-12T00:50:18.066Z,7.20
2022-09-12T00:52:48.810Z,6.93
2022-09-12T00:55:19.879Z,8.48
2022-09-12T00:57:52.649Z,6.83
2022-09-12T01:00:21.709Z,6.20
2022-09-12T01:03:11.603Z,5.97
2022-09-12T01:05:44.376Z,7.15
2022-09-12T01:08:13.039Z,6.70
2022-09-12T01:10:41.621Z,6.80
2022-09-12T01:13:09.793Z,6.50
2022-09-12T01:15:40.582Z,7.95
2022-09-12T01:18:40.348Z,5.00
2022-09-12T01:21:13.594Z,8.02
2022-09-12T01:23:49.175Z,6.77
2022-09-12T01:26:58.976Z,6.90
2022-09-12T01:29:53.687Z,6.32
2022-09-12T01:32:38.544Z,5.90
2022-09-12T01:35:38.030Z,5.60
2022-09-12T01:38:20.541Z,6.20
2022-09-12T01:41:07.608Z,5.05
2022-09-12T01:43:50.233Z,8.98
2022-09-12T01:46:24.745Z,6.43
2022-09-12T01:48:58.376Z,5.38
2022-09-12T01:51:53.552Z,6.55
2022-09-12T01:54:44.650Z,4.13
2022-09-12T01:57:22.765Z,6.00
2022-09-12T01:59:55.264Z,4.95
2022-09-12T02:02:37.410Z,5.60
2022-09-12T02:05:17.486Z,4.83
2022-09-12T02:07:49.606Z,5.40
2022-09-12T02:10:22.544Z,7.93
2022-09-12T02:12:59.669Z,6.50
2022-09-12T02:15:38.437Z,10.30
2022-09-12T02:18:06.549Z,8.27
2022-09-12T02:20:48.849Z,6.38
2022-09-12T02:23:22.672Z,6.88
2022-09-12T02:25:55.001Z,10.43
2022-09-12T02:28:42.192Z,11.50
2022-09-12T02:31:43.473Z,7.80
2022-09-12T02:34:39.353Z,6.30
2022-09-12T02:37:55.135Z,10.10
2022-09-12T02:40:23.013Z,9.02
2022-09-12T02:42:51.897Z,7.13
2022-09-12T02:45:18.975Z,6.10
2022-09-12T02:47:53.252Z,5.50
2022-09-12T02:50:24.496Z,8.15
2022-09-12T02:52:54.082Z,9.10
2022-09-12T02:55:21.769Z,9.75
2022-09-12T02:57:48.358Z,15.63
2022-09-12T03:00:15.245Z,7.70
2022-09-12T03:03:17.038Z,7.68
2022-09-12T03:06:21.163Z,6.35
2022-09-12T03:12:30.203Z,7.37
2022-09-12T03:15:21.056Z,6.13
2022-09-12T03:18:12.041Z,7.07
2022-09-12T03:21:15.038Z,5.85
2022-09-12T03:24:18.053Z,6.50
2022-09-12T03:27:07.685Z,8.87
2022-09-12T03:29:36.013Z,8.40
2022-09-12T03:32:20.517Z,12.77
2022-09-12T03:34:58.571Z,8.55
2022-09-12T03:40:09.233Z,6.83
2022-09-12T03:42:44.458Z,9.07
2022-09-12T03:45:14.917Z,5.20
2022-09-12T03:47:48.977Z,8.02
2022-09-12T03:50:17.953Z,6.90
2022-09-12T03:52:50.839Z,6.40
2022-09-12T03:55:24.474Z,9.80
2022-09-12T04:00:46.637Z,5.72
2022-09-12T04:03:17.299Z,4.93
2022-09-12T04:05:47.860Z,4.82
2022-09-12T04:08:37.716Z,4.55
2022-09-12T04:11:14.585Z,6.10
2022-09-12T04:13:52.806Z,5.72
2022-09-12T04:16:25.634Z,6.15
2022-09-12T04:19:16.339Z,7.27
2022-09-12T04:21:46.449Z,9.95
2022-09-12T04:24:15.062Z,9.88
2022-09-12T04:26:41.855Z,11.77
2022-09-12T04:29:18.165Z,11.35
2022-09-12T04:34:37.432Z,11.35
2022-09-12T04:37:28.697Z,12.32
2022-09-12T04:40:05.815Z,8.88
2022-09-12T04:44:08.074Z,7.95
2022-09-12T04:48:07.695Z,8.82
2022-09-12T04:50:39.082Z,9.63
2022-09-12T04:56:22.477Z,14.43
2022-09-12T04:59:27.016Z,16.93
2022-09-12T05:02:05.601Z,14.68
2022-09-12T05:04:35.804Z,16.42
2022-09-12T05:07:19.110Z,20.40
2022-09-12T05:09:49.397Z,12.23
2022-09-12T05:12:19.375Z,14.20
2022-09-12T05:14:53.700Z,16.50
2022-09-12T05:17:22.503Z,9.13
2022-09-12T05:20:01.008Z,9.05
2022-09-12T05:22:29.760Z,10.25
2022-09-12T05:24:59.673Z,11.25
2022-09-12T05:28:13.740Z,15.13
2022-09-12T05:30:16.943Z,13.27
2022-09-12T05:32:47.304Z,14.63
2022-09-12T05:35:25.396Z,13.95
2022-09-12T05:37:55.619Z,14.23
2022-09-12T05:40:47.099Z,14.70
2022-09-12T05:43:42.525Z,16.25
2022-09-12T05:46:21.138Z,13.32
2022-09-12T05:48:56.669Z,16.55
2022-09-12T06:23:41.996Z,19.90
2022-09-12T06:26:13.939Z,20.02
2022-09-12T06:28:45.445Z,18.20
2022-09-12T06:31:17.176Z,20.77
2022-09-12T06:34:43.074Z,22.95
2022-09-12T06:37:21.557Z,24.80
2022-09-12T06:39:48.835Z,21.08
2022-09-12T06:42:22.560Z,27.33
2022-09-12T06:47:37.663Z,21.13
2022-09-12T06:50:34.591Z,19.17
2022-09-12T06:53:07.429Z,25.70
2022-09-12T06:55:38.226Z,28.23
2022-09-12T06:58:09.072Z,27.38
2022-09-12T07:00:45.189Z,25.35
2022-09-12T07:06:03.994Z,28.60
2022-09-12T07:11:24.155Z,31.92
2022-09-12T07:14:58.673Z,32.42
2022-09-12T07:17:02.803Z,28.73
2022-09-12T07:19:32.937Z,30.13
2022-09-12T07:22:03.038Z,28.70
2022-09-12T07:24:31.943Z,35.38
2022-09-12T07:27:06.915Z,40.60
2022-09-12T07:29:41.665Z,37.05
2022-09-12T07:32:12.041Z,33.13
2022-09-12T07:34:50.883Z,37.53
2022-09-12T07:37:19.571Z,32.83
2022-09-12T07:39:49.581Z,35.63
2022-09-12T07:42:19.612Z,34.30
2022-09-12T07:44:51.787Z,42.08
2022-09-12T07:47:20.958Z,36.20
2022-09-12T07:50:00.188Z,36.90
2022-09-12T07:52:29.506Z,37.42
2022-09-12T07:54:56.011Z,31.92
2022-09-12T07:57:27.393Z,33.08
2022-09-12T08:00:22.630Z,33.73
2022-09-12T08:03:03.085Z,34.75
2022-09-12T08:05:38.532Z,31.33
2022-09-12T08:08:07.393Z,31.83
2022-09-12T08:11:08.629Z,31.48
2022-09-12T08:13:39.060Z,31.47
2022-09-12T08:16:37.616Z,29.33
2022-09-12T08:19:07.632Z,30.02
2022-09-12T08:21:40.437Z,27.48
2022-09-12T08:27:06.699Z,30.70
2022-09-12T08:30:03.406Z,23.15
2022-09-12T08:45:07.527Z,21.70
2022-09-12T08:57:23.263Z,25.33
2022-09-12T09:00:41.996Z,23.45
2022-09-12T09:04:07.424Z,28.08
2022-09-12T09:07:03.976Z,20.70
2022-09-12T09:10:03.927Z,21.65
2022-09-12T09:12:57.115Z,20.17
2022-09-12T09:18:39.527Z,24.77
2022-09-12T09:21:34.443Z,19.20
2022-09-12T09:24:18.884Z,20.90
2022-09-12T09:30:41.806Z,20.45
2022-09-12T09:33:34.264Z,19.80
2022-09-12T09:36:21.969Z,18.77
2022-09-12T09:39:20.406Z,17.02
2022-09-12T09:42:19.504Z,18.40
2022-09-12T09:45:06.073Z,19.20
2022-09-12T09:47:59.978Z,22.27
2022-09-12T09:50:38.893Z,24.58
2022-09-12T09:53:33.130Z,20.83
2022-09-12T09:56:27.810Z,23.73
2022-09-12T10:01:48.051Z,20.50
2022-09-12T10:05:02.590Z,17.13
2022-09-12T10:11:32.730Z,19.77
2022-09-12T10:20:48.088Z,15.95
2022-09-12T10:23:25.470Z,20.70
2022-09-12T10:26:13.507Z,16.30
2022-09-12T10:31:50.604Z,19.10
2022-09-12T10:34:47.741Z,13.77
2022-09-12T10:37:50.495Z,16.58
2022-09-12T10:40:51.040Z,13.97
2022-09-12T10:43:42.471Z,15.32
2022-09-12T10:46:15.756Z,11.63
2022-09-12T10:48:49.474Z,15.18
2022-09-12T10:51:58.554Z,9.80
2022-09-12T10:57:35.949Z,7.50
2022-09-12T11:00:39.378Z,10.00
2022-09-12T11:03:39.061Z,9.30
2022-09-12T11:06:41.991Z,11.48
2022-09-12T11:09:49.491Z,10.97
2022-09-12T11:12:56.601Z,9.80
2022-09-12T11:15:32.643Z,5.63
2022-09-12T11:18:24.052Z,7.28
2022-09-12T11:24:53.154Z,9.93
2022-09-12T11:27:51.578Z,7.85
2022-09-12T11:30:20.747Z,5.10
2022-09-12T11:33:25.094Z,5.07
2022-09-12T11:35:55.613Z,4.53
2022-09-12T11:38:44.039Z,5.00
2022-09-12T11:41:41.739Z,7.25
2022-09-12T11:44:26.722Z,4.63
2022-09-12T11:47:00.146Z,12.93
2022-09-12T12:06:06.872Z,3.53
2022-09-12T12:35:44.195Z,2.72
2022-09-12T12:38:50.692Z,3.35
2022-09-12T12:43:12.751Z,5.15
2022-09-12T12:44:55.542Z,3.55
2022-09-12T12:53:30.870Z,3.80
2022-09-12T12:59:58.264Z,4.03
2022-09-12T13:02:43.604Z,2.57
2022-09-12T13:05:49.082Z,3.65
2022-09-12T13:08:24.845Z,3.92
2022-09-12T13:17:00.052Z,3.50
2022-09-12T13:19:36.364Z,2.03
2022-09-12T13:22:07.844Z,2.22
2022-09-12T13:24:45.095Z,4.75
2022-09-12T13:27:28.357Z,3.83
2022-09-12T13:30:47.366Z,5.63
2022-09-12T13:33:47.831Z,3.85
2022-09-12T13:38:23.141Z,2.67
2022-09-12T13:39:49.566Z,3.03
2022-09-12T13:45:27.032Z,2.13
2022-09-12T13:48:01.967Z,3.25
2022-09-12T13:51:27.893Z,3.35
2022-09-12T13:59:07.258Z,2.70
2022-09-12T14:05:33.718Z,3.38
2022-09-12T14:08:09.946Z,3.35
2022-09-12T14:13:55.777Z,2.53
2022-09-12T14:16:51.019Z,2.53
2022-09-12T14:22:34.310Z,3.05
2022-09-12T14:25:10.784Z,2.75
2022-09-12T14:28:06.499Z,2.30
2022-09-12T14:31:11.816Z,2.43
2022-09-12T14:38:04.826Z,1.95
2022-09-12T14:40:29.108Z,2.47
2022-09-12T14:43:01.066Z,3.78
2022-09-12T14:45:56.908Z,1.93
2022-09-12T14:48:33.448Z,1.88
2022-09-12T14:51:14.307Z,1.92
2022-09-12T14:54:15.006Z,2.30
2022-09-12T14:56:44.659Z,4.40
2022-09-12T14:59:30.984Z,2.87
2022-09-12T15:02:37.178Z,2.15
2022-09-12T15:05:10.334Z,2.40
2022-09-12T15:08:11.946Z,3.28
2022-09-12T15:10:45.678Z,1.60
2022-09-12T15:13:19.006Z,2.60
2022-09-12T15:16:06.583Z,1.65
2022-09-12T15:18:35.768Z,2.33
2022-09-12T15:21:04.788Z,4.32
2022-09-12T15:24:37.255Z,1.70
2022-09-12T15:29:53.519Z,2.70
2022-09-12T15:32:25.567Z,3.88
2022-09-12T15:34:58.299Z,2.63
2022-09-12T15:37:25.475Z,2.08
2022-09-12T15:40:06.421Z,1.73
2022-09-12T15:42:35.668Z,2.63
2022-09-12T15:45:02.925Z,2.08
2022-09-12T15:47:29.640Z,3.47
2022-09-12T15:49:56.224Z,2.25
2022-09-12T15:52:22.803Z,2.93
2022-09-12T15:54:49.502Z,1.85
2022-09-12T15:57:18.324Z,2.13
2022-09-12T15:59:50.151Z,3.30
2022-09-12T16:02:49.248Z,1.80
2022-09-12T16:05:24.546Z,2.50
2022-09-12T16:07:58.328Z,2.67
2022-09-12T16:10:46.311Z,2.90
2022-09-12T16:13:15.487Z,1.63
2022-09-12T16:15:45.509Z,1.45
2022-09-12T16:21:14.901Z,2.95
2022-09-12T16:24:02.299Z,2.00
2022-09-12T16:26:37.744Z,1.10
2022-09-12T16:32:16.352Z,1.57
2022-09-12T16:37:34.530Z,3.15
2022-09-12T16:43:06.852Z,1.90
2022-09-12T16:45:34.540Z,2.70
2022-09-12T16:55:01.769Z,1.58
2022-09-12T16:55:32.777Z,1.50
2022-09-12T16:58:07.893Z,0.95
2022-09-12T17:00:34.375Z,4.63
2022-09-12T17:03:04.379Z,1.55
2022-09-12T17:05:44.663Z,1.90
2022-09-12T17:09:01.839Z,2.30
2022-09-12T17:11:26.498Z,4.65
2022-09-12T17:17:05.371Z,1.52
2022-09-12T17:19:35.612Z,3.42
2022-09-12T17:22:09.503Z,3.50
2022-09-12T17:24:44.051Z,2.75
2022-09-12T17:27:19.459Z,5.80
2022-09-12T17:33:38.961Z,1.38
2022-09-12T17:35:43.263Z,3.03
2022-09-12T17:39:45.119Z,4.10
2022-09-12T17:41:00.365Z,3.37
2022-09-12T17:46:21.172Z,1.35
2022-09-12T17:48:54.531Z,4.63
2022-09-12T17:51:32.470Z,3.22
2022-09-12T17:55:09.042Z,5.50
2022-09-12T17:57:13.312Z,4.72
2022-09-12T18:00:26.873Z,2.55
2022-09-12T18:02:33.198Z,3.75
2022-09-12T18:07:59.677Z,2.80
2022-09-12T18:14:34.062Z,2.45
2022-09-12T18:17:57.140Z,2.80
2022-09-12T18:19:59.861Z,1.85
2022-09-12T18:22:33.807Z,2.67
2022-09-12T18:25:11.488Z,4.03
2022-09-12T18:27:41.787Z,2.42
2022-09-12T18:31:51.539Z,3.60
2022-09-12T18:33:05.668Z,2.47
2022-09-12T18:35:35.757Z,2.37
2022-09-12T18:38:32.431Z,3.00
2022-09-12T18:41:47.648Z,3.83
2022-09-12T18:44:20.393Z,2.20
2022-09-12T18:46:54.685Z,3.38
2022-09-12T18:49:23.391Z,1.80
2022-09-12T18:54:37.047Z,4.80
2022-09-12T18:57:11.599Z,3.17
2022-09-12T18:59:45.891Z,3.10
2022-09-12T19:05:25.792Z,3.55
2022-09-12T19:08:13.211Z,2.72
2022-09-12T19:14:09.204Z,2.28
2022-09-12T19:16:13.449Z,11.50
2022-09-12T19:18:48.945Z,7.13
2022-09-12T19:21:47.213Z,5.40
2022-09-12T19:30:26.289Z,4.30
2022-09-12T19:33:04.959Z,8.63
2022-09-12T19:38:32.748Z,5.93
2022-09-12T19:41:21.813Z,5.78
2022-09-12T19:43:51.130Z,6.67
2022-09-12T19:46:46.235Z,7.65
2022-09-12T19:49:14.563Z,3.83
2022-09-12T19:51:48.321Z,3.90
2022-09-12T19:54:16.917Z,5.50
2022-09-12T19:57:13.212Z,6.07
2022-09-12T20:02:47.282Z,5.15
2022-09-12T20:05:16.191Z,5.80
2022-09-12T20:07:51.940Z,5.10
2022-09-12T20:13:02.837Z,3.90
2022-09-12T20:22:16.816Z,5.55
2022-09-12T20:25:17.252Z,13.00
2022-09-12T20:28:08.863Z,6.72
2022-09-12T20:33:23.088Z,5.70
2022-09-12T20:41:54.604Z,5.35
2022-09-12T20:47:35.802Z,6.30
2022-09-12T20:50:54.096Z,5.63
2022-09-12T20:54:17.859Z,6.53
2022-09-12T20:56:44.700Z,6.45
2022-09-12T21:06:10.093Z,6.05
2022-09-12T21:12:22.162Z,4.82
2022-09-12T21:14:51.148Z,5.07
2022-09-12T21:17:30.888Z,6.72
2022-09-12T21:20:11.252Z,4.40
2022-09-12T21:25:33.870Z,5.03
2022-09-12T21:28:03.568Z,4.57
2022-09-12T21:33:44.445Z,10.05
2022-09-12T21:36:14.734Z,6.30
2022-09-12T21:38:48.486Z,7.70
2022-09-12T21:41:19.288Z,4.65
2022-09-12T21:50:42.729Z,5.67
2022-09-12T21:53:56.943Z,2.90
2022-09-12T21:58:53.789Z,3.42
2022-09-12T22:01:59.812Z,3.00
2022-09-12T22:04:37.008Z,5.10
2022-09-12T22:09:45.771Z,3.90
2022-09-12T22:16:26.416Z,7.20
2022-09-12T22:18:58.489Z,3.27
2022-09-12T22:21:27.631Z,5.18
2022-09-12T22:27:06.588Z,5.43
2022-09-12T22:29:46.335Z,3.40
2022-09-12T22:32:35.732Z,6.97
2022-09-12T22:35:26.635Z,9.65
2022-09-12T22:37:58.392Z,5.68
2022-09-12T22:41:09.335Z,2.97
2022-09-12T22:43:40.858Z,6.45
2022-09-12T22:46:57.237Z,5.57
2022-09-12T22:49:23.807Z,10.43
2022-09-12T22:51:53.764Z,7.63
2022-09-12T22:54:27.794Z,5.80
2022-09-12T22:56:59.005Z,4.85
2022-09-12T22:59:32.931Z,5.00
2022-09-12T23:02:03.236Z,3.63
2022-09-12T23:04:41.389Z,3.53
2022-09-12T23:07:37.209Z,3.83
2022-09-12T23:12:53.568Z,9.33
2022-09-12T23:18:20.568Z,5.50
2022-09-12T23:21:43.224Z,4.72
2022-09-12T23:24:18.769Z,4.80
2022-09-12T23:26:48.700Z,4.13
2022-09-12T23:29:18.129Z,8.18
2022-09-12T23:31:49.157Z,3.78
2022-09-12T23:34:30.325Z,5.50
2022-09-12T23:37:28.421Z,4.10
2022-09-12T23:39:55.297Z,5.97
2022-09-12T23:42:47.099Z,4.50
2022-09-12T23:45:17.781Z,4.93
2022-09-12T23:47:44.342Z,5.15
2022-09-12T23:50:12.995Z,5.50
2022-09-12T23:52:42.470Z,4.63
2022-09-12T23:55:12.979Z,5.18
2022-09-12T23:57:39.496Z,5.53
